Latest Coastal Weather Observations for Bellambi

IDN60701

Issued at 3:31 am EST Friday 22 September 2017 (issued every 10 minutes, with the page automatically refreshed every 10 minutes)

About coastal observations | Map of coastal stations | Coastal observations for NSW | Marine services | Other Formats
Station Details ID: 068228 Name: BELLAMBI AWS Lat: -34.37 Lon: 150.93 Height: 10.0 m
Data from the previous 72 hours. | See also: Recent months at Bellambi
Date/Time
EST
Temp
°C
Wind Pressure Rain since
9am
mm
Weather Cloud Vis
km
Sea
Height
m
Swell
Dir  Spd
kts
Gust
kts
hPa Trend Height
m
Period
s
Dir
22/03:30am 15.0 ESE 1 4 - - 0.0 - Clear - - - - -
22/03:00am 14.4 W 3 7 - - 0.0 - - - - - - -
22/02:30am 15.3 SE 4 5 - - 0.0 - - - - - - -
22/02:00am 15.9 NE 3 5 - - 0.0 - - - - - - -
22/01:30am 14.6 ENE 3 5 - - 0.0 - - - - - - -
22/01:00am 14.5 SW 3 6 - - 0.0 - - - - - - -
22/12:30am 14.2 CALM 0 0 - - 0.0 - - - - - - -
22/12:00am 13.9 SSW 2 4 - - 0.0 - - - - - - -
 
Date/Time
EST
Temp
°C
Wind Pressure Rain since
9am
mm
Weather Cloud Vis
km
Sea
Height
m
Swell
Dir  Spd
kts
Gust
kts
hPa Trend Height
m
Period
s
Dir
21/11:30pm 13.4 CALM 0 0 - - 0.0 - - - - - - -
21/11:00pm 13.9 NNW 1 3 - - 0.0 - - - - - - -
21/10:30pm 13.8 NNW 4 5 - - 0.0 - - - - - - -
21/10:00pm 14.0 NNW 3 4 - - 0.0 - - - - - - -
21/09:30pm 15.1 CALM 0 0 - - 0.0 - - - - - - -
21/09:00pm 14.6 CALM 0 0 - - 0.0 - - - - - - -
21/08:30pm 15.4 NNW 3 4 - - 0.0 - - - - - - -
21/08:00pm 15.7 NNW 4 4 - - 0.0 - - - - - - -
21/07:30pm 16.4 N 2 4 - - 0.0 - - - - - - -
21/07:00pm 16.8 N 5 7 - - 0.0 - - - - - - -
21/06:30pm 17.0 NW 1 4 - - 0.0 - - - - - - -
21/06:00pm 17.3 NNE 7 9 - - 0.0 - - - - - - -
21/05:30pm 17.6 NNE 9 12 - - 0.0 - - - - - - -
21/05:00pm 18.0 N 9 11 - - 0.0 - - - - - - -
21/04:30pm 18.0 NNE 11 13 - - 0.0 - - - - - - -
21/04:00pm 18.3 NNE 10 13 - - 0.0 - - - - - - -
21/03:30pm 18.5 NNE 11 14 - - 0.0 - - - - - - -
21/03:00pm 18.8 NNE 10 13 - - 0.0 - - - - - - -
21/02:30pm 19.0 NNE 9 13 - - 0.0 - - - - - - -
21/02:00pm 18.5 NNE 8 10 - - 0.0 - - - - - - -
21/01:30pm 18.9 NNE 9 11 - - 0.0 - - - - - - -
21/01:00pm 19.3 NNE 10 13 - - 0.0 - - - - - - -
21/12:30pm 19.4 NNE 8 11 - - 0.0 - - - - - - -
21/12:00pm 19.5 NE 11 13 - - 0.0 - - - - - - -
21/11:30am 19.1 NE 13 15 - - 0.0 - - - - - - -
21/11:00am 19.3 NE 11 13 - - 0.0 - - - - - - -
21/10:30am 18.8 ENE 12 13 - - 0.0 - - - - - - -
21/10:00am 18.2 ENE 11 12 - - 0.0 - - - - - - -
21/09:30am 19.3 NE 5 8 - - 0.0 - - - - - - -
21/09:00am 18.3 NNE 4 7 - - 0.0 - - - - - - -
21/08:30am 18.1 NW 9 13 - - 0.0 - - - - - - -
21/08:00am 16.6 N 5 6 - - 0.0 - - - - - - -
21/07:30am 15.4 WNW 8 11 - - 0.0 - - - - - - -
21/07:00am 14.2 WNW 9 15 - - 0.0 - - - - - - -
21/06:30am 13.0 NNW 6 10 - - 0.0 - - - - - - -
21/06:00am 12.4 NNW 5 7 - - 0.0 - - - - - - -
21/05:30am 12.4 WNW 8 10 - - 0.0 - - - - - - -
21/05:00am 12.2 WNW 7 8 - - 0.0 - - - - - - -
21/04:30am 12.0 NW 8 9 - - 0.0 - - - - - - -
21/04:00am 11.9 NW 5 7 - - 0.0 - - - - - - -
21/03:30am 12.1 NW 5 7 - - 0.0 - - - - - - -
21/03:00am 11.7 WNW 5 7 - - 0.0 - - - - - - -
21/02:30am 11.6 CALM 0 2 - - 0.0 - - - - - - -
21/02:00am 11.6 WNW 2 5 - - 0.0 - - - - - - -
21/01:30am 12.1 WNW 6 7 - - 0.0 - - - - - - -
21/01:00am 12.3 NNW 1 4 - - 0.0 - - - - - - -
21/12:30am 12.1 NW 7 9 - - 0.0 - - - - - - -
21/12:00am 12.1 WNW 5 7 - - 0.0 - - - - - - -
 
Date/Time
EST
Temp
°C
Wind Pressure Rain since
9am
mm
Weather Cloud Vis
km
Sea
Height
m
Swell
Dir  Spd
kts
Gust
kts
hPa Trend Height
m
Period
s
Dir
20/11:30pm 11.8 W 4 5 - - 0.0 - - - - - - -
20/11:00pm 12.5 NW 6 7 - - 0.0 - - - - - - -
20/10:30pm 12.2 NW 5 6 - - 0.0 - - - - - - -
20/10:00pm 12.2 NW 4 6 - - 0.0 - - - - - - -
20/09:30pm 12.8 NW 5 6 - - 0.0 - - - - - - -
20/09:00pm 12.9 WNW 5 6 - - 0.0 - - - - - - -
20/08:30pm 13.1 WNW 5 5 - - 0.0 - - - - - - -
20/08:00pm 13.5 NW 4 5 - - 0.0 - - - - - - -
20/07:30pm 13.6 WNW 5 5 - - 0.0 - - - - - - -
20/07:00pm 14.2 WNW 2 4 - - 0.0 - - - - - - -
20/06:30pm 15.0 NE 8 10 - - 0.0 - - - - - - -
20/06:00pm 15.0 NNE 8 10 - - 0.0 - - - - - - -
20/05:30pm 15.1 NE 9 11 - - 0.0 - - - - - - -
20/05:00pm 15.6 NE 8 9 - - 0.0 - - - - - - -
20/04:30pm 16.0 NE 8 10 - - 0.0 - - - - - - -
20/04:00pm 16.2 NE 7 8 - - 0.0 - - - - - - -
20/03:30pm 16.2 NE 6 9 - - 0.0 - - - - - - -
20/03:00pm 16.5 ENE 6 8 - - 0.0 - - - - - - -
20/02:30pm 16.4 ENE 6 10 - - 0.0 - - - - - - -
20/02:00pm 16.8 ENE 6 8 - - 0.0 - - - - - - -
20/01:30pm 16.4 NE 6 8 - - 0.0 - - - - - - -
20/01:00pm 16.4 ENE 6 8 - - 0.0 - - - - - - -
20/12:30pm 16.4 E 7 9 - - 0.0 - - - - - - -
20/12:00pm 16.1 ESE 6 8 - - 0.0 - - - - - - -
20/11:30am 16.0 ESE 7 9 - - 0.0 - - - - - - -
20/11:00am 16.1 SE 7 9 - - 0.0 - - - - - - -
20/10:30am 15.9 SE 8 10 - - 0.0 - - - - - - -
20/10:00am 15.7 SSE 9 11 - - 0.0 - Partly cloudy - - - - -
20/09:30am 15.1 SSE 9 12 - - 0.0 - Partly cloudy - - - - -
20/09:00am 14.7 S 10 12 - - 0.0 - - - - - - -
20/08:30am 14.6 S 10 12 - - 0.0 - Partly cloudy - - - - -
20/08:00am 14.1 SSW 6 8 - - 0.0 - Partly cloudy - - - - -
20/07:30am 13.5 WSW 5 6 - - 0.0 - Partly cloudy - - - - -
20/07:00am 12.1 WSW 5 7 - - 0.0 - Partly cloudy - - - - -
20/06:30am 10.9 W 6 6 - - 0.0 - - - - - - -
20/06:00am 10.5 WSW 4 4 - - 0.0 - Mostly clear - - - - -
20/05:30am 10.9 WSW 4 5 - - 0.0 - Partly cloudy - - - - -
20/05:00am 11.4 WSW 6 7 - - 0.0 - Partly cloudy - - - - -
20/04:30am 11.0 WSW 6 7 - - 0.0 - Cloudy - - - - -
20/04:00am 10.2 WSW 2 4 - - 0.0 - Partly cloudy - - - - -
20/03:30am 10.7 NW 3 4 - - 0.0 - Partly cloudy - - - - -
20/03:00am 11.1 NW 3 4 - - 0.0 - - - - - - -
20/02:30am 11.1 WSW 4 5 - - 0.0 - - - - - - -
20/02:00am 11.5 WSW 6 7 - - 0.0 - Partly cloudy - - - - -
20/01:30am 11.4 W 5 6 - - 0.0 - Partly cloudy - - - - -
20/01:00am 11.5 W 4 5 - - 0.0 - Partly cloudy - - - - -
20/12:30am 11.8 WSW 7 9 - - 0.0 - - - - - - -
20/12:00am 11.9 W 5 7 - - 0.0 - - - - - - -
 
Date/Time
EST
Temp
°C
Wind Pressure Rain since
9am
mm
Weather Cloud Vis
km
Sea
Height
m
Swell
Dir  Spd
kts
Gust
kts
hPa Trend Height
m
Period
s
Dir
19/11:30pm 12.5 WSW 8 11 - - 0.0 - - - - - - -
19/11:00pm 12.7 WSW 8 11 - - 0.0 - - - - - - -
19/10:30pm 12.7 WSW 9 13 - - 0.0 - - - - - - -
19/10:00pm 12.5 WSW 5 7 - - 0.0 - - - - - - -
19/09:30pm 13.2 WSW 7 9 - - 0.0 - - - - - - -
19/09:00pm 13.4 SW 7 10 - - 0.0 - - - - - - -
19/08:30pm 14.3 SW 9 13 - - 0.0 - - - - - - -
19/08:00pm 15.1 WSW 11 17 - - 0.0 - - - - - - -
19/07:30pm 15.3 WSW 10 17 - - 0.0 - - - - - - -
19/07:00pm 15.5 WSW 7 13 - - 0.0 - - - - - - -
19/06:30pm 16.3 WSW 11 19 - - 0.0 - - - - - - -
19/06:00pm 16.7 W 12 18 - - 0.0 - - - - - - -
19/05:30pm 17.4 WSW 15 24 - - 0.0 - - - - - - -
19/05:00pm 18.4 WSW 13 20 - - 0.0 - - - - - - -
19/04:30pm 19.0 WSW 15 26 - - 0.0 - - - - - - -
19/04:25pm 19.0 WSW 16 26 - - 0.0 - - - - - - -
19/04:00pm 19.4 WSW 16 24 - - 0.0 - - - - - - -
19/03:30pm 19.9 WSW 15 26 - - 0.0 - - - - - - -
19/03:11pm 19.9 WSW 15 27 - - 0.0 - - - - - - -
19/03:00pm 20.0 W 17 23 - - 0.0 - - - - - - -
19/02:31pm 20.5 W 15 27 - - 0.0 - - - - - - -
19/02:30pm 20.8 W 14 23 - - 0.0 - - - - - - -
19/02:07pm 20.7 WSW 15 29 - - 0.0 - - - - - - -
19/02:00pm 21.4 W 11 15 - - 0.0 - - - - - - -
19/01:30pm 20.7 WNW 13 21 - - 0.0 - - - - - - -
19/01:03pm 20.2 W 15 25 - - 0.0 - - - - - - -
19/01:00pm 20.3 W 13 25 - - 0.0 - - - - - - -
19/12:30pm 20.4 W 12 18 - - 0.0 - - - - - - -
19/12:00pm 20.0 W 15 21 - - 0.0 - - - - - - -
19/11:49am 20.0 WSW 16 27 - - 0.0 - - - - - - -
19/11:30am 20.6 W 10 17 - - 0.0 - - - - - - -
19/11:00am 20.4 WSW 14 23 - - 0.0 - - - - - - -
19/10:33am 20.6 WSW 15 26 - - 0.0 - - - - - - -
19/10:30am 20.3 WSW 13 26 - - 0.0 - - - - - - -
19/10:00am 20.1 W 12 21 - - 0.0 - - - - - - -
19/09:30am 19.1 WSW 13 20 - - 0.0 - - - - - - -
19/09:00am 18.3 W 13 22 - - 0.0 - Mostly clear - - - - -
19/08:38am 17.4 WSW 15 25 - - 0.0 - - - - - - -
19/08:30am 17.6 W 10 17 - - 0.0 - - - - - - -
19/08:00am 17.2 WSW 8 13 - - 0.0 - - - - - - -
19/07:30am 17.1 SW 8 13 - - 0.0 - - - - - - -
19/07:00am 17.5 WSW 11 18 - - 0.0 - - - - - - -
19/06:30am 17.7 W 14 21 - - 0.0 - - - - - - -
19/06:00am 17.8 W 11 19 - - 0.0 - - - - - - -
19/05:30am 17.0 WNW 7 12 - - 0.0 - - - - - - -
19/05:00am 16.3 NW 15 19 - - 0.0 - - - - - - -
19/04:30am 18.8 NNW 17 21 - - 0.0 - - - - - - -
19/04:00am 18.6 NNW 16 19 - - 0.0 - - - - - - -

Other Formats:

Comma delimited format used in spreadsheet applications
http://www.bom.gov.au/fwo/IDN60701/IDN60701.94749.axf

JavaScript Object Notation format (JSON) in row-major order
http://www.bom.gov.au/fwo/IDN60701/IDN60701.94749.json